Time;durP1;ratioP1;P1;durP2;ratioP2;P2;SDS_P1;SDS_P2;PMS_P1;PMS_P2;Temp;Humidity;BMP_temperature;BMP_pressure;BME280_temperature;BME280_humidity;BME280_pressure;Samples;Min_cycle;Max_cycle;Signal;HPM_P1;HPM_P2
2022/05/21 00:01:49;;;;;;;11.30;4.45;;;11.00;99.90;;;;;;4947666;28;20546;-86
2022/05/21 00:04:15;;;;;;;11.23;4.50;;;11.00;99.90;;;;;;4974177;28;20048;-85
2022/05/21 00:06:41;;;;;;;11.18;4.35;;;11.00;99.90;;;;;;4949960;28;20395;-85
2022/05/21 00:09:08;;;;;;;11.00;4.68;;;11.10;99.90;;;;;;4972615;28;20042;-85
2022/05/21 00:11:33;;;;;;;13.02;4.63;;;11.10;99.90;;;;;;4990011;28;20127;-85
2022/05/21 00:13:59;;;;;;;10.40;4.45;;;11.10;99.90;;;;;;4971922;28;20066;-86
2022/05/21 00:16:26;;;;;;;12.05;4.82;;;11.10;99.90;;;;;;4961445;28;20416;-84
2022/05/21 00:18:52;;;;;;;10.45;4.45;;;11.10;99.90;;;;;;4955512;28;20442;-86
2022/05/21 00:21:17;;;;;;;10.98;4.70;;;11.10;99.90;;;;;;5007553;28;20119;-85
2022/05/21 00:23:43;;;;;;;13.48;4.55;;;11.20;99.90;;;;;;4954650;28;20207;-85
2022/05/21 00:26:12;;;;;;;11.43;4.60;;;11.20;99.90;;;;;;4974081;28;20050;-86
2022/05/21 00:28:40;;;;;;;13.75;5.25;;;11.20;99.90;;;;;;4994950;28;20034;-85
2022/05/21 00:31:07;;;;;;;13.15;5.20;;;11.20;99.90;;;;;;4988801;28;20042;-85
2022/05/21 00:33:33;;;;;;;14.63;5.22;;;11.20;99.90;;;;;;4974260;28;20081;-85
2022/05/21 00:35:59;;;;;;;11.57;4.88;;;11.30;99.90;;;;;;4958486;28;20304;-85
2022/05/21 00:38:25;;;;;;;14.05;5.43;;;11.20;99.90;;;;;;4993320;28;20041;-84
2022/05/21 00:40:53;;;;;;;15.60;5.22;;;11.30;99.90;;;;;;4976124;28;20099;-86
2022/05/21 00:43:54;;;;;;;11.52;5.28;;;11.20;99.90;;;;;;4980141;28;20490;-85
2022/05/21 00:46:23;;;;;;;11.48;5.40;;;11.30;99.90;;;;;;4979465;28;20041;-86
2022/05/21 00:49:01;;;;;;;11.82;5.53;;;11.20;99.90;;;;;;4975223;28;20054;-84
2022/05/21 00:51:31;;;;;;;13.55;6.35;;;11.20;99.90;;;;;;4976165;28;20061;-85
2022/05/21 00:53:59;;;;;;;13.73;6.75;;;11.20;99.90;;;;;;4991722;28;20034;-84
2022/05/21 00:56:27;;;;;;;12.95;6.70;;;11.30;99.90;;;;;;4978517;28;20511;-85
2022/05/21 01:01:44;;;;;;;14.40;7.95;;;11.30;99.90;;;;;;5005537;28;20042;-85
2022/05/21 01:04:10;;;;;;;16.98;8.40;;;11.30;99.90;;;;;;4990396;28;20061;-85
2022/05/21 01:06:36;;;;;;;17.70;8.68;;;11.30;99.90;;;;;;4972696;28;20470;-86
2022/05/21 01:09:02;;;;;;;20.35;9.30;;;11.30;99.90;;;;;;4978376;28;20506;-86
2022/05/21 01:11:29;;;;;;;16.40;8.95;;;11.30;99.90;;;;;;4974620;28;20041;-85
2022/05/21 01:13:54;;;;;;;19.08;9.63;;;11.30;99.90;;;;;;4973361;28;20443;-85
2022/05/21 01:16:20;;;;;;;18.67;9.82;;;11.40;99.90;;;;;;4996237;28;20129;-86
2022/05/21 01:18:46;;;;;;;19.75;10.40;;;11.40;99.90;;;;;;4978457;28;20044;-84
2022/05/21 01:21:12;;;;;;;18.23;9.98;;;11.40;99.90;;;;;;4993799;28;20192;-85
2022/05/21 01:23:38;;;;;;;19.38;10.23;;;11.40;99.90;;;;;;4989136;28;20030;-85
2022/05/21 01:26:06;;;;;;;19.75;10.95;;;11.40;99.90;;;;;;4976212;28;20042;-85
2022/05/21 01:28:36;;;;;;;21.40;11.32;;;11.50;99.90;;;;;;4965130;28;20116;-85
2022/05/21 01:31:02;;;;;;;17.50;10.55;;;11.50;99.90;;;;;;4989299;28;20441;-85
2022/05/21 01:33:32;;;;;;;20.77;11.10;;;11.70;99.90;;;;;;4957944;28;20180;-84
2022/05/21 01:35:58;;;;;;;21.63;12.20;;;11.50;99.90;;;;;;4997405;28;20029;-85
2022/05/21 01:38:26;;;;;;;20.85;11.88;;;11.60;99.90;;;;;;4971239;28;20050;-86
2022/05/21 01:40:52;;;;;;;26.33;13.20;;;11.60;99.90;;;;;;4982411;28;20130;-86
2022/05/21 01:46:02;;;;;;;19.83;12.07;;;11.70;99.90;;;;;;4976396;28;20081;-86
2022/05/21 01:48:30;;;;;;;22.38;12.32;;;11.70;99.90;;;;;;4968273;28;20042;-85
2022/05/21 01:50:56;;;;;;;21.00;12.77;;;11.70;99.90;;;;;;4981654;28;20056;-84
2022/05/21 01:53:24;;;;;;;22.27;13.65;;;11.80;99.90;;;;;;4969001;28;20045;-84
2022/05/21 01:55:51;;;;;;;22.55;12.90;;;11.80;99.90;;;;;;4991609;28;20038;-85
2022/05/21 01:58:18;;;;;;;23.08;13.55;;;11.80;99.90;;;;;;4977634;28;20103;-84
2022/05/21 02:00:44;;;;;;;20.25;12.68;;;11.90;99.90;;;;;;4961250;28;20056;-85
2022/05/21 02:03:11;;;;;;;25.52;13.90;;;11.90;99.90;;;;;;4992601;28;20128;-86
2022/05/21 02:05:37;;;;;;;22.73;14.75;;;11.90;99.90;;;;;;4989194;28;20391;-86
2022/05/21 02:08:04;;;;;;;20.27;14.45;;;11.90;99.90;;;;;;4989514;28;20407;-85
2022/05/21 02:10:32;;;;;;;23.13;14.38;;;12.00;99.90;;;;;;4973440;28;20042;-85
2022/05/21 02:12:57;;;;;;;23.27;15.15;;;12.00;99.90;;;;;;4975968;28;20045;-86
2022/05/21 02:15:23;;;;;;;26.13;15.02;;;12.60;99.90;;;;;;4993311;28;20058;-85
2022/05/21 02:17:49;;;;;;;24.60;16.08;;;12.10;99.90;;;;;;4960641;28;20053;-85
2022/05/21 02:20:15;;;;;;;21.38;15.52;;;12.10;99.90;;;;;;4994383;28;20037;-87
2022/05/21 02:22:40;;;;;;;26.23;16.48;;;12.10;99.90;;;;;;4981283;28;20041;-85
2022/05/21 02:25:07;;;;;;;24.85;15.77;;;12.20;99.90;;;;;;4974147;28;20125;-84
2022/05/21 02:27:34;;;;;;;30.50;17.33;;;12.20;99.90;;;;;;4977148;28;20527;-84
2022/05/21 02:30:01;;;;;;;24.23;16.45;;;12.20;99.90;;;;;;4961950;28;20045;-83
2022/05/21 02:32:27;;;;;;;30.67;19.48;;;12.30;99.90;;;;;;5001106;28;20125;-84
2022/05/21 02:34:52;;;;;;;30.08;18.02;;;12.30;99.90;;;;;;4978243;28;20151;-86
2022/05/21 02:40:03;;;;;;;26.02;18.05;;;12.40;99.90;;;;;;4983442;28;20125;-85
2022/05/21 02:42:48;;;;;;;28.98;19.70;;;12.40;99.90;;;;;;4970712;28;20069;-84
2022/05/21 02:45:19;;;;;;;26.85;18.83;;;12.40;99.90;;;;;;4975927;28;20427;-85
2022/05/21 02:47:46;;;;;;;27.40;19.13;;;12.40;99.90;;;;;;4993339;28;20030;-84
2022/05/21 02:50:13;;;;;;;28.88;18.63;;;12.40;99.90;;;;;;4990176;28;20038;-85
2022/05/21 02:52:39;;;;;;;27.52;16.60;;;12.50;99.90;;;;;;4973084;28;20446;-85
2022/05/21 02:55:07;;;;;;;29.70;18.10;;;12.50;99.90;;;;;;4944178;28;20115;-85
2022/05/21 02:57:32;;;;;;;28.92;16.58;;;12.60;99.90;;;;;;4972469;28;20034;-84
2022/05/21 03:00:08;;;;;;;25.30;15.85;;;12.60;99.90;;;;;;4960932;28;20185;-85
2022/05/21 03:02:34;;;;;;;30.20;16.25;;;12.60;99.90;;;;;;4988979;28;20069;-85
2022/05/21 03:04:59;;;;;;;23.45;14.25;;;12.70;99.90;;;;;;4976131;28;20123;-85
2022/05/21 03:07:25;;;;;;;24.67;14.57;;;12.70;99.90;;;;;;4975464;28;20526;-85
2022/05/21 03:12:36;;;;;;;25.63;13.60;;;12.80;99.90;;;;;;4973948;28;20183;-86
2022/05/21 03:15:02;;;;;;;23.98;13.75;;;12.80;99.90;;;;;;4982346;28;20062;-84
2022/05/21 03:17:28;;;;;;;24.08;14.02;;;12.90;99.90;;;;;;5001351;28;20045;-85
2022/05/21 03:19:54;;;;;;;23.23;13.32;;;12.90;99.90;;;;;;4961905;28;20046;-85
2022/05/21 03:22:20;;;;;;;23.80;12.30;;;12.90;99.90;;;;;;4976416;28;20092;-85
2022/05/21 03:24:46;;;;;;;25.85;13.10;;;12.90;99.90;;;;;;4975639;28;20176;-85
2022/05/21 03:27:11;;;;;;;25.17;12.00;;;12.90;99.90;;;;;;4991115;28;20419;-85
2022/05/21 03:29:37;;;;;;;22.20;11.52;;;12.90;99.90;;;;;;4975156;28;20042;-85
2022/05/21 03:32:04;;;;;;;22.80;11.40;;;13.00;99.90;;;;;;4976924;28;20049;-85
2022/05/21 03:34:30;;;;;;;23.52;12.25;;;12.90;99.90;;;;;;4975392;28;20494;-85
2022/05/21 03:36:56;;;;;;;27.00;10.48;;;13.00;99.90;;;;;;4975812;28;20042;-86
2022/05/21 03:39:22;;;;;;;25.45;10.13;;;13.00;99.90;;;;;;4992038;28;20037;-85
2022/05/21 03:41:48;;;;;;;22.50;10.45;;;13.00;99.90;;;;;;4976051;28;20030;-85
2022/05/21 03:44:14;;;;;;;22.25;9.70;;;13.00;99.90;;;;;;4992554;28;20042;-86
2022/05/21 03:46:40;;;;;;;21.13;9.45;;;13.00;99.90;;;;;;4992519;28;22103;-84
2022/05/21 03:49:06;;;;;;;26.13;9.93;;;13.00;99.90;;;;;;4974787;28;20049;-85
2022/05/21 03:51:32;;;;;;;20.75;7.85;;;13.10;99.90;;;;;;4974967;28;20471;-85
2022/05/21 03:53:57;;;;;;;20.83;8.40;;;13.10;99.90;;;;;;5007846;28;20034;-85
2022/05/21 03:56:23;;;;;;;19.30;6.60;;;13.10;99.90;;;;;;4995505;28;20045;-86
2022/05/21 03:58:49;;;;;;;18.23;7.15;;;13.10;99.90;;;;;;4957449;28;20041;-85
2022/05/21 04:01:15;;;;;;;19.77;6.28;;;13.20;99.90;;;;;;4974505;28;20095;-85
2022/05/21 04:03:42;;;;;;;21.50;6.07;;;13.20;99.90;;;;;;4975375;28;20040;-84
2022/05/21 04:06:08;;;;;;;19.08;5.60;;;13.20;99.90;;;;;;4987438;28;20118;-85
2022/05/21 04:08:33;;;;;;;20.17;5.75;;;13.20;99.90;;;;;;4972829;28;20614;-84
2022/05/21 04:10:59;;;;;;;18.10;5.82;;;13.20;99.90;;;;;;4961005;28;20030;-85
2022/05/21 04:13:26;;;;;;;21.23;5.70;;;13.20;99.90;;;;;;4986436;28;20049;-86
2022/05/21 04:15:52;;;;;;;17.23;4.72;;;13.20;99.90;;;;;;4961875;28;20058;-85
2022/05/21 04:18:18;;;;;;;19.50;5.20;;;13.20;99.90;;;;;;4971472;28;20529;-85
2022/05/21 04:20:44;;;;;;;17.52;4.85;;;13.20;99.90;;;;;;4991740;28;20128;-86
2022/05/21 04:23:10;;;;;;;19.50;5.15;;;13.30;99.90;;;;;;4977892;28;20053;-85
2022/05/21 04:25:36;;;;;;;16.88;4.97;;;13.30;99.90;;;;;;4954217;28;20258;-84
2022/05/21 04:28:03;;;;;;;15.45;5.28;;;13.30;99.90;;;;;;4979236;28;20430;-84
2022/05/21 04:30:30;;;;;;;17.15;4.72;;;13.30;99.90;;;;;;4971374;28;20050;-84
2022/05/21 04:32:58;;;;;;;16.95;4.40;;;13.30;99.90;;;;;;4991052;28;20104;-83
2022/05/21 04:35:25;;;;;;;19.00;4.68;;;13.30;99.90;;;;;;4985298;28;20047;-85
2022/05/21 04:37:51;;;;;;;14.27;4.38;;;13.30;99.90;;;;;;4969362;28;20472;-85
2022/05/21 04:40:20;;;;;;;17.60;4.35;;;13.50;99.90;;;;;;4984082;28;20043;-85
2022/05/21 04:42:46;;;;;;;15.23;3.95;;;13.40;99.90;;;;;;4974515;28;20054;-84
2022/05/21 04:45:13;;;;;;;16.25;3.88;;;13.40;99.90;;;;;;4989159;28;20037;-84
2022/05/21 04:47:39;;;;;;;16.88;4.30;;;13.40;99.90;;;;;;4990928;28;20088;-83
2022/05/21 04:50:10;;;;;;;12.23;3.55;;;13.40;99.90;;;;;;5007447;28;20503;-85
2022/05/21 04:52:36;;;;;;;14.07;4.07;;;13.40;99.90;;;;;;4974491;28;20519;-85
2022/05/21 04:55:08;;;;;;;13.20;3.47;;;13.40;99.90;;;;;;4973104;28;20042;-84
2022/05/21 04:57:34;;;;;;;14.98;3.47;;;13.40;99.90;;;;;;4981606;28;20044;-87
2022/05/21 04:59:59;;;;;;;19.52;3.95;;;13.40;99.90;;;;;;4959701;28;20034;-84
2022/05/21 05:02:25;;;;;;;16.17;4.38;;;13.50;99.90;;;;;;4973758;28;20121;-86
2022/05/21 05:04:51;;;;;;;14.32;4.13;;;13.40;99.90;;;;;;4971243;28;20038;-86
2022/05/21 05:07:19;;;;;;;14.95;3.67;;;14.50;99.90;;;;;;4974083;28;20054;-86
2022/05/21 05:09:46;;;;;;;15.48;3.50;;;13.50;99.90;;;;;;4988247;28;20034;-86
2022/05/21 05:12:12;;;;;;;14.40;3.53;;;13.50;99.90;;;;;;4970972;28;20052;-87
2022/05/21 05:14:39;;;;;;;15.18;3.22;;;13.50;99.90;;;;;;4974649;28;20122;-86
2022/05/21 05:17:06;;;;;;;13.82;3.28;;;13.50;99.90;;;;;;4976185;28;20531;-85
2022/05/21 05:19:33;;;;;;;12.85;3.15;;;13.50;99.90;;;;;;4991981;28;20034;-85
2022/05/21 05:21:58;;;;;;;12.65;3.00;;;13.50;99.90;;;;;;4975475;28;20154;-85
2022/05/21 05:24:24;;;;;;;12.98;3.40;;;13.50;99.90;;;;;;4994922;28;20121;-86
2022/05/21 05:26:50;;;;;;;13.77;3.30;;;13.50;99.90;;;;;;4994194;28;20042;-86
2022/05/21 05:29:16;;;;;;;12.43;3.22;;;13.60;99.90;;;;;;4978921;28;20045;-84
2022/05/21 05:31:41;;;;;;;11.18;3.15;;;13.60;99.90;;;;;;4970087;28;20030;-85
2022/05/21 05:34:07;;;;;;;12.93;2.97;;;13.70;99.90;;;;;;4984070;28;20510;-85
2022/05/21 05:36:33;;;;;;;12.18;3.28;;;13.70;99.90;;;;;;4977408;28;20046;-86
2022/05/21 05:38:59;;;;;;;12.23;3.17;;;13.70;99.90;;;;;;4990070;28;20045;-83
2022/05/21 05:41:26;;;;;;;11.70;3.38;;;13.70;99.90;;;;;;4960512;28;20057;-85
2022/05/21 05:43:54;;;;;;;11.43;3.08;;;13.70;99.90;;;;;;4995813;28;20029;-85
2022/05/21 05:46:19;;;;;;;13.45;3.20;;;13.70;99.90;;;;;;4978510;28;20197;-86
2022/05/21 05:48:45;;;;;;;14.98;3.30;;;13.80;99.90;;;;;;4972819;28;20116;-84
2022/05/21 05:51:11;;;;;;;12.52;2.95;;;13.80;99.90;;;;;;4977696;28;20117;-84
2022/05/21 05:53:37;;;;;;;11.20;2.97;;;13.90;99.90;;;;;;4973230;28;20435;-85
2022/05/21 05:56:06;;;;;;;13.10;3.33;;;13.90;99.90;;;;;;4977336;28;20034;-85
2022/05/21 06:01:16;;;;;;;10.88;2.85;;;13.90;99.90;;;;;;4960434;28;20050;-86
2022/05/21 06:03:42;;;;;;;12.02;3.28;;;13.80;99.90;;;;;;4978049;28;20493;-86
2022/05/21 06:06:07;;;;;;;17.38;3.47;;;13.80;99.90;;;;;;4975949;28;20073;-85
2022/05/21 06:08:34;;;;;;;11.00;2.75;;;13.80;99.90;;;;;;4975159;28;20042;-85
2022/05/21 06:10:59;;;;;;;14.65;3.17;;;13.90;99.90;;;;;;4973598;28;20050;-85
2022/05/21 06:13:25;;;;;;;13.23;2.97;;;13.90;99.90;;;;;;4979717;28;20038;-85
2022/05/21 06:15:51;;;;;;;13.52;3.20;;;13.90;99.90;;;;;;4974675;28;20182;-85
2022/05/21 06:18:20;;;;;;;12.93;2.88;;;13.90;99.90;;;;;;4980362;28;20049;-85
2022/05/21 06:20:48;;;;;;;11.93;3.08;;;13.90;99.90;;;;;;5002661;28;20079;-86
2022/05/21 06:23:14;;;;;;;10.73;3.17;;;14.00;99.90;;;;;;4999688;28;20049;-86
2022/05/21 06:25:40;;;;;;;12.98;3.22;;;14.00;99.90;;;;;;4980495;28;20450;-84
2022/05/21 06:28:07;;;;;;;18.40;4.03;;;14.10;99.90;;;;;;4964934;28;20030;-85
2022/05/21 06:30:35;;;;;;;12.50;3.22;;;14.10;99.90;;;;;;4993269;28;20102;-85
2022/05/21 06:33:25;;;;;;;13.23;2.97;;;14.20;99.90;;;;;;4977551;28;20042;-85
2022/05/21 06:36:03;;;;;;;12.43;3.15;;;14.30;99.90;;;;;;4991786;28;20042;-85
2022/05/21 06:38:29;;;;;;;13.45;3.08;;;14.40;99.90;;;;;;4977619;28;20053;-85
2022/05/21 06:40:55;;;;;;;14.30;3.95;;;14.40;99.90;;;;;;4995307;28;20042;-85
2022/05/21 06:43:22;;;;;;;11.75;2.78;;;14.40;99.90;;;;;;4942322;28;20103;-86
2022/05/21 06:45:48;;;;;;;13.68;3.75;;;14.30;99.90;;;;;;4989813;28;20117;-85
2022/05/21 06:48:14;;;;;;;12.00;3.05;;;14.30;99.90;;;;;;4973662;28;20125;-84
2022/05/21 06:50:39;;;;;;;12.20;2.63;;;14.30;99.90;;;;;;4957551;28;20049;-86
2022/05/21 06:53:06;;;;;;;15.60;2.88;;;14.50;99.90;;;;;;4947927;28;20518;-87
2022/05/21 06:55:32;;;;;;;12.35;2.90;;;14.60;99.90;;;;;;4992601;28;20045;-86
2022/05/21 06:57:58;;;;;;;10.70;2.78;;;14.60;99.90;;;;;;4977092;28;20038;-84
2022/05/21 07:00:24;;;;;;;12.05;2.67;;;14.50;99.90;;;;;;4939471;28;20041;-86
2022/05/21 07:02:52;;;;;;;12.55;3.03;;;14.60;99.90;;;;;;4972359;28;20048;-86
2022/05/21 07:08:05;;;;;;;13.27;2.83;;;14.60;99.90;;;;;;4968860;28;20069;-86
2022/05/21 07:10:32;;;;;;;11.43;2.60;;;14.60;99.90;;;;;;5000009;28;20038;-88
2022/05/21 07:12:57;;;;;;;13.40;3.55;;;14.50;99.90;;;;;;4989642;28;20046;-87
2022/05/21 07:15:23;;;;;;;13.32;3.10;;;14.50;99.90;;;;;;4961977;28;20064;-85
2022/05/21 07:17:49;;;;;;;11.60;3.00;;;14.50;99.90;;;;;;4972381;28;20128;-86
2022/05/21 07:20:21;;;;;;;13.32;2.60;;;14.80;99.90;;;;;;4935695;28;20507;-85
2022/05/21 07:22:48;;;;;;;11.30;2.95;;;14.90;99.90;;;;;;4979982;28;20053;-85
2022/05/21 07:25:18;;;;;;;11.77;3.25;;;15.10;99.90;;;;;;4960928;28;20038;-86
2022/05/21 07:27:43;;;;;;;13.55;3.08;;;15.10;99.90;;;;;;4988910;28;20506;-85
2022/05/21 07:30:10;;;;;;;12.57;2.85;;;15.30;99.90;;;;;;4962568;28;20057;-85
2022/05/21 07:32:36;;;;;;;12.82;3.30;;;15.50;99.90;;;;;;4991653;28;20040;-85
2022/05/21 07:35:08;;;;;;;10.18;2.50;;;15.50;99.90;;;;;;4973300;28;20038;-86
2022/05/21 07:37:35;;;;;;;12.23;2.70;;;15.50;99.90;;;;;;4981282;28;20674;-87
2022/05/21 07:40:02;;;;;;;12.82;3.05;;;15.60;99.90;;;;;;4990502;28;20045;-85
2022/05/21 07:42:28;;;;;;;13.15;2.80;;;15.60;99.90;;;;;;4976916;28;20117;-84
2022/05/21 07:44:53;;;;;;;12.82;2.95;;;15.60;99.90;;;;;;4999199;28;20192;-85
2022/05/21 07:47:23;;;;;;;10.45;2.95;;;15.50;99.90;;;;;;4989760;28;20076;-85
2022/05/21 07:49:51;;;;;;;17.05;2.88;;;15.30;99.90;;;;;;4994199;28;20037;-85
2022/05/21 07:52:18;;;;;;;11.18;2.60;;;15.20;99.90;;;;;;4958104;28;20043;-86
2022/05/21 07:54:44;;;;;;;13.13;2.92;;;15.00;99.90;;;;;;4977792;28;20261;-84
2022/05/21 07:57:11;;;;;;;11.68;2.75;;;15.10;99.90;;;;;;4991635;28;20349;-85
2022/05/21 07:59:36;;;;;;;12.60;2.88;;;15.30;99.90;;;;;;4983497;28;20154;-87
2022/05/21 08:02:02;;;;;;;17.08;2.85;;;15.50;99.90;;;;;;4963252;28;20526;-85
2022/05/21 08:04:28;;;;;;;9.75;2.50;;;15.70;99.90;;;;;;4993090;28;20123;-85
2022/05/21 08:06:54;;;;;;;10.88;2.55;;;15.80;99.90;;;;;;4961622;28;20042;-84
2022/05/21 08:09:21;;;;;;;13.05;2.63;;;15.70;99.90;;;;;;4973535;28;20096;-85
2022/05/21 08:11:47;;;;;;;9.45;2.17;;;16.00;99.90;;;;;;4966404;28;20034;-85
2022/05/21 08:14:13;;;;;;;17.08;2.70;;;15.80;99.90;;;;;;4986574;28;20394;-84
2022/05/21 08:16:39;;;;;;;9.32;2.45;;;15.70;99.90;;;;;;4999893;28;20046;-86
2022/05/21 08:19:05;;;;;;;11.77;2.70;;;15.70;99.90;;;;;;4977168;28;20125;-87
2022/05/21 08:21:31;;;;;;;12.70;2.65;;;15.70;99.90;;;;;;4976536;28;20490;-83
2022/05/21 08:26:56;;;;;;;11.27;2.60;;;15.60;99.90;;;;;;4976899;28;20041;-86
2022/05/21 08:29:31;;;;;;;13.63;3.13;;;15.60;99.90;;;;;;4966389;28;20034;-85
2022/05/21 08:31:58;;;;;;;11.52;2.80;;;15.70;99.90;;;;;;4995414;28;20046;-85
2022/05/21 08:34:25;;;;;;;10.90;2.38;;;15.80;99.90;;;;;;4963480;28;20033;-84
2022/05/21 08:36:53;;;;;;;9.90;2.83;;;15.90;99.90;;;;;;4997794;28;20399;-85
2022/05/21 08:39:19;;;;;;;10.05;2.22;;;15.90;99.90;;;;;;4992491;28;20038;-85
2022/05/21 08:41:54;;;;;;;12.07;3.60;;;16.10;99.90;;;;;;4992618;28;20140;-84
2022/05/21 08:44:27;;;;;;;12.45;3.03;;;16.20;99.90;;;;;;4992603;28;20097;-85
2022/05/21 08:46:58;;;;;;;;;;;16.20;99.90;;;;;;4990526;28;20042;-85
2022/05/21 08:49:29;;;;;;;11.07;2.40;;;16.10;99.90;;;;;;4988670;28;20427;-85
2022/05/21 08:52:26;;;;;;;12.07;2.97;;;16.20;99.90;;;;;;5006222;28;20093;-85
2022/05/21 08:54:55;;;;;;;10.68;2.55;;;16.50;99.90;;;;;;4984826;28;20037;-86
2022/05/21 08:57:39;;;;;;;10.13;2.40;;;16.60;99.90;;;;;;4977171;28;20038;-86
2022/05/21 09:00:12;;;;;;;12.95;2.60;;;16.60;99.90;;;;;;4976607;28;20099;-85
2022/05/21 09:02:38;;;;;;;13.63;3.10;;;16.50;99.90;;;;;;4972363;28;20038;-86
2022/05/21 09:05:07;;;;;;;11.60;2.60;;;16.70;99.90;;;;;;4987745;28;20515;-85
2022/05/21 09:07:49;;;;;;;11.38;2.50;;;16.60;99.90;;;;;;4977185;28;20041;-83
2022/05/21 09:10:48;;;;;;;13.95;2.95;;;17.00;99.90;;;;;;4994614;28;20038;-85
2022/05/21 09:13:36;;;;;;;13.25;2.20;;;16.60;99.90;;;;;;5000124;28;20097;-86
2022/05/21 09:18:49;;;;;;;12.15;2.35;;;16.70;99.90;;;;;;4990003;28;20536;-86
2022/05/21 09:21:21;;;;;;;11.05;2.55;;;16.40;99.90;;;;;;4990600;28;20078;-85
2022/05/21 09:23:57;;;;;;;10.37;2.40;;;16.60;99.90;;;;;;4988783;28;20068;-85
2022/05/21 09:26:48;;;;;;;10.38;2.38;;;16.70;99.90;;;;;;4976927;28;20638;-85
2022/05/21 09:29:19;;;;;;;11.63;2.50;;;16.60;99.90;;;;;;4978534;28;20046;-84
2022/05/21 09:31:46;;;;;;;11.48;2.60;;;16.70;99.90;;;;;;4992103;28;20190;-85
2022/05/21 09:34:26;;;;;;;11.90;2.45;;;16.70;99.90;;;;;;4972087;28;20511;-85
2022/05/21 09:36:52;;;;;;;9.60;2.30;;;16.60;99.90;;;;;;4991474;28;20050;-84
2022/05/21 09:39:38;;;;;;;12.95;2.47;;;16.30;99.90;;;;;;4973493;28;20050;-85
2022/05/21 09:42:07;;;;;;;11.57;2.47;;;16.10;99.90;;;;;;4992386;28;20096;-84
2022/05/21 09:47:25;;;;;;;12.07;2.63;;;16.00;99.90;;;;;;4979055;28;20573;-84
2022/05/21 09:50:03;;;;;;;11.23;2.10;;;16.20;99.90;;;;;;4992621;28;20499;-84
2022/05/21 09:52:31;;;;;;;10.30;2.60;;;16.30;99.90;;;;;;4992238;28;20491;-84
2022/05/21 09:54:56;;;;;;;11.85;2.60;;;16.50;99.90;;;;;;4976590;28;20550;-87
2022/05/21 09:57:35;;;;;;;10.10;2.33;;;16.80;99.90;;;;;;4989778;28;20038;-85
2022/05/21 10:00:12;;;;;;;8.77;2.20;;;16.80;99.90;;;;;;4990338;28;20042;-85
2022/05/21 10:02:43;;;;;;;11.10;2.55;;;16.70;99.90;;;;;;4992330;28;20042;-86
2022/05/21 10:05:13;;;;;;;11.02;2.30;;;16.90;99.90;;;;;;4976155;28;20039;-85
2022/05/21 10:13:20;;;;;;;11.93;2.72;;;16.80;99.90;;;;;;4990626;28;20046;-86
2022/05/21 10:15:58;;;;;;;11.60;2.47;;;16.70;99.90;;;;;;4987516;28;20063;-86
2022/05/21 10:18:39;;;;;;;12.57;2.72;;;16.60;99.90;;;;;;4988933;28;20037;-85
2022/05/21 10:21:18;;;;;;;9.30;2.28;;;16.90;99.90;;;;;;4988965;28;20114;-84
2022/05/21 10:23:54;;;;;;;8.88;2.17;;;17.00;99.90;;;;;;4973337;28;20042;-84
2022/05/21 10:26:44;;;;;;;11.80;2.72;;;16.90;99.90;;;;;;4985838;28;20190;-84
2022/05/21 10:29:28;;;;;;;11.45;2.13;;;16.90;99.90;;;;;;4978555;28;20038;-83
2022/05/21 10:32:17;;;;;;;10.32;2.17;;;16.80;99.90;;;;;;4985020;28;20049;-86
2022/05/21 10:35:23;;;;;;;11.70;2.60;;;16.60;99.90;;;;;;4988699;28;20042;-84
2022/05/21 10:38:10;;;;;;;10.52;2.40;;;17.00;99.90;;;;;;4988233;28;20046;-87
2022/05/21 10:44:47;;;;;;;11.35;2.60;;;17.50;99.90;;;;;;4973562;28;20056;-84
2022/05/21 10:47:13;;;;;;;12.30;2.80;;;17.70;99.90;;;;;;4987633;28;20667;-86
2022/05/21 10:50:01;;;;;;;11.43;2.45;;;17.70;99.90;;;;;;4991146;28;20057;-85
2022/05/21 10:53:16;;;;;;;12.40;2.35;;;17.70;99.90;;;;;;4988766;28;20038;-89
2022/05/21 10:56:16;;;;;;;8.95;2.30;;;17.30;99.90;;;;;;4951888;28;20140;-87
2022/05/21 10:59:00;;;;;;;9.50;2.13;;;17.10;99.90;;;;;;4987015;28;20049;-85
2022/05/21 11:01:44;;;;;;;10.30;2.10;;;17.50;99.90;;;;;;4991414;28;20077;-85
2022/05/21 11:04:25;;;;;;;11.95;2.47;;;17.90;99.90;;;;;;4985738;28;20416;-86
2022/05/21 11:07:28;;;;;;;9.98;1.92;;;18.00;99.90;;;;;;4976407;28;20046;-85
2022/05/21 11:10:04;;;;;;;8.23;1.83;;;17.90;99.90;;;;;;4983938;28;20064;-85
2022/05/21 11:12:50;;;;;;;8.60;2.10;;;17.80;99.90;;;;;;4972000;28;20439;-89
2022/05/21 11:15:27;;;;;;;11.05;2.28;;;18.10;99.90;;;;;;4981491;28;20057;-86
2022/05/21 11:18:23;;;;;;;10.23;2.38;;;18.30;99.90;;;;;;4990738;28;20413;-84
2022/05/21 11:21:05;;;;;;;11.05;2.40;;;18.50;99.90;;;;;;4973327;28;20097;-85
2022/05/21 11:23:57;;;;;;;10.75;2.55;;;18.80;99.90;;;;;;4988606;28;20500;-82
2022/05/21 11:26:50;;;;;;;8.63;2.30;;;19.10;99.90;;;;;;4982978;28;20046;-83
2022/05/21 11:29:44;;;;;;;10.07;2.67;;;19.10;99.90;;;;;;4966541;28;20057;-85
2022/05/21 11:38:31;;;;;;;7.85;1.90;;;19.20;99.90;;;;;;4983666;28;20042;-84
2022/05/21 11:47:20;;;;;;;8.25;2.05;;;19.00;99.90;;;;;;4985776;28;20129;-83
2022/05/21 11:49:57;;;;;;;9.98;2.17;;;18.90;99.90;;;;;;5004325;28;20042;-84
2022/05/21 11:52:26;;;;;;;8.15;1.95;;;18.80;99.90;;;;;;4990205;28;20043;-84
2022/05/21 11:54:58;;;;;;;9.63;2.10;;;18.60;99.90;;;;;;4986406;28;20038;-85
2022/05/21 11:57:40;;;;;;;10.88;2.00;;;18.50;99.90;;;;;;4972435;28;20039;-84
2022/05/21 12:00:18;;;;;;;9.77;2.30;;;18.40;99.90;;;;;;4968760;28;20069;-86
2022/05/21 12:02:56;;;;;;;9.55;2.08;;;18.50;99.90;;;;;;4997658;28;20472;-85
2022/05/21 12:05:34;;;;;;;7.57;2.20;;;18.80;99.90;;;;;;4980642;28;20500;-85
2022/05/21 12:08:16;;;;;;;11.07;1.95;;;18.80;99.90;;;;;;4995782;28;20041;-83
2022/05/21 12:11:10;;;;;;;7.65;1.83;;;18.50;99.90;;;;;;4982061;28;20038;-82
2022/05/21 12:13:40;;;;;;;7.60;2.13;;;18.50;99.90;;;;;;4972577;28;20116;-85
2022/05/21 12:16:15;;;;;;;8.48;2.03;;;18.30;99.90;;;;;;4974241;28;20081;-85
2022/05/21 12:18:55;;;;;;;10.75;2.08;;;18.20;99.90;;;;;;5007534;28;20514;-86
2022/05/21 12:21:32;;;;;;;9.02;2.47;;;18.10;99.90;;;;;;4968356;28;20049;-84
2022/05/21 12:24:25;;;;;;;11.93;2.55;;;18.40;99.90;;;;;;4965203;28;20053;-85
2022/05/21 12:27:15;;;;;;;7.82;2.08;;;18.60;99.90;;;;;;4972074;28;20403;-85
2022/05/21 12:29:45;;;;;;;9.80;2.25;;;18.80;99.90;;;;;;4980721;28;20096;-84
2022/05/21 12:32:24;;;;;;;6.25;1.95;;;19.10;99.90;;;;;;4967060;28;20406;-84
2022/05/21 12:34:52;;;;;;;8.82;2.00;;;19.30;99.90;;;;;;4961393;28;20077;-85
2022/05/21 12:37:35;;;;;;;9.45;1.98;;;19.30;99.90;;;;;;4971369;28;20388;-84
2022/05/21 12:40:01;;;;;;;9.88;2.20;;;19.20;99.90;;;;;;4989555;28;20212;-84
2022/05/21 12:42:43;;;;;;;9.07;2.05;;;19.10;99.90;;;;;;4987621;28;20042;-84
2022/05/21 12:45:12;;;;;;;9.23;2.00;;;19.20;99.90;;;;;;4972151;28;20042;-86
2022/05/21 12:47:42;;;;;;;6.80;1.60;;;18.90;99.90;;;;;;4971792;28;20129;-85
2022/05/21 12:50:22;;;;;;;8.05;1.77;;;18.80;99.90;;;;;;4984732;28;20035;-84
2022/05/21 12:52:53;;;;;;;9.27;2.22;;;19.00;99.90;;;;;;4971052;28;20045;-85
2022/05/21 12:55:30;;;;;;;8.43;2.08;;;19.20;99.90;;;;;;4965144;28;20070;-85
2022/05/21 12:58:16;;;;;;;9.48;2.08;;;19.10;99.90;;;;;;4987216;28;20469;-85
2022/05/21 13:00:49;;;;;;;7.93;1.77;;;19.30;99.90;;;;;;4978199;28;20114;-86
2022/05/21 13:03:16;;;;;;;9.30;2.05;;;19.60;99.90;;;;;;4988913;28;20042;-85
2022/05/21 13:06:22;;;;;;;7.47;1.77;;;19.70;99.90;;;;;;4980946;28;20050;-87
2022/05/21 13:08:52;;;;;;;8.73;1.92;;;19.50;99.90;;;;;;4936934;28;20046;-84
2022/05/21 13:11:24;;;;;;;9.73;1.95;;;19.20;99.90;;;;;;4986145;28;20081;-87
2022/05/21 13:14:13;;;;;;;14.10;2.15;;;19.10;99.90;;;;;;4968288;28;20044;-87
2022/05/21 13:16:50;;;;;;;7.63;1.80;;;19.10;99.90;;;;;;4623869;28;10000353;-87
2022/05/21 13:19:44;;;;;;;7.93;1.70;;;18.90;99.90;;;;;;4960561;28;20042;-87
2022/05/21 13:22:33;;;;;;;7.63;1.98;;;18.70;99.90;;;;;;4980528;28;20117;-87
2022/05/21 13:25:10;;;;;;;7.30;1.58;;;18.50;99.90;;;;;;4993004;28;20110;-87
2022/05/21 13:28:12;;;;;;;8.52;1.80;;;18.50;99.90;;;;;;4968670;28;20049;-88
2022/05/21 13:30:41;;;;;;;8.75;1.70;;;18.80;99.90;;;;;;4981838;28;20096;-87
2022/05/21 13:33:13;;;;;;;7.35;1.88;;;18.60;99.90;;;;;;4956912;28;20333;-88
2022/05/21 13:35:41;;;;;;;9.13;1.95;;;18.30;99.90;;;;;;4986722;28;20038;-87
2022/05/21 13:38:12;;;;;;;6.57;1.63;;;18.40;99.90;;;;;;4986765;28;20526;-88
2022/05/21 13:40:55;;;;;;;7.97;1.73;;;18.50;99.90;;;;;;4974999;28;20053;-88
2022/05/21 13:43:34;;;;;;;8.07;1.90;;;18.50;99.90;;;;;;4974519;28;20426;-87
2022/05/21 13:46:02;;;;;;;9.68;2.10;;;18.30;99.90;;;;;;4974315;28;20410;-89